Soaring Guidance
Issued by NWS Reno, NV

Home | Current Version | Previous Version | Text Only | Print | Product List | Glossary On
Versions: 1 2 3 4 5 6 7 8 9 10 11 12 13
000
UXUS97 KREV 151448
SRGREV

SOARING FORECAST
NATIONAL WEATHER SERVICE - RENO NV
700 AM PST MON JAN 15 2018

THIS SOARING FORECAST IS FOR THE EASTERN SIERRA AND WESTERN NEVADA
WITH SPECIFIC INDICES FOR THE GREATER RENO AREA.

THIS FORECAST IS PREPARED DAILY BY 700 AM AND IS NOT UPDATED.

FOR CURRENT FLIGHT CONDITIONS...FORECASTS...AND ADVISORIES...ACCESS
YOUR LOCAL BRIEFING OUTLET OR FLIGHT SERVICE STATION.

*******************************************************************
FORECASTED LOCAL INDICES FOR RENO:        TODAY     YESTERDAY
FORECASTED MAX TEMP AT RENO (DEG F).....     58          53
FORECASTED TRIGGER TEMPERATURE (DEG F)..     64          66
   EXCEEDED YESTERDAY BY
FORECASTED MAXIMUM ALTITUDE (FT MSL)....   6300        7200
FORECASTED SOARING INDEX (FPM)..........     99         276
FORECASTED K-INDEX.........VALID 18Z....      5           5
FORECASTED K-INDEX.........VALID 00Z....     13           5
FORECASTED LIFTED INDEX....VALID 18Z....      4           4
FORECASTED LIFTED INDEX....VALID 00Z....      5           3

AFTERNOON WINDS ALOFT FORECAST
MSL (FT) WIND/TEMP
9000  2218/+04
10000 2218/+01
12000 2218/-03
14000 2319/-07
16000 2420/-11
18000 2524/-16
24000 2433/-29
30000 2431/-47
34000 2449/-57
39000 2552/-62

SLIDE MOUNTAIN DATA:
     DATE       TIME     TEMP  DEWPT   RH         WIND (MPH)
                        (F)   (F)           | DIR  SPEED GUST
2018-01-15    05:20      36    17     32    | 236   15   21
2018-01-15    05:00      36    17     32    | 231   14   20
2018-01-15    04:50      37    17     32    | 238   13   20
2018-01-15    04:30      36    17     31    | 242   13   18

SIERRA CREST 8700 FT DATA:
   DATE     TIME  TEMP  RH         WIND
                            DIR   SPEED   GUST
2018-01-15 0600   37   45   216     25     27
2018-01-15 0545   36   45   192     22     26
2018-01-15 0530   36   47   167     18     24
2018-01-15 0515   34   52   188     17     21

RENO TAF FORECAST:
KRNO 151152Z 1512/1612 VRB02KT P6SM BKN150 OVC200
     FM152200 16005KT P6SM BKN120 OVC180

CARSON CITY TAF FORECAST:
KCXP 151152Z 1512/1612 VRB03KT P6SM BKN120 OVC200
     FM152100 14006KT P6SM BKN110 OVC180

OUTLOOK FOR THE RENO-CARSON CITY-MINDEN AREA:
.TUESDAY...MOSTLY CLOUDY WITH A CHANCE OF RAIN AND SNOW. HIGHS
50 TO 55. SOUTHWEST WINDS 10 TO 15 MPH.

SUNRISE AND SUNSET
JANUARY 15 2018.......SUNRISE   718 AM PST   SUNSET   500 PM PST
JANUARY 16 2018.......SUNRISE   717 AM PST   SUNSET   501 PM PST


USA.gov is the U.S. government's official web portal to all federal, state and local government web resources and services.